Time;durP1;ratioP1;P1;durP2;ratioP2;P2;SDS_P1;SDS_P2;PMS_P1;PMS_P2;Temp;Humidity;BMP_temperature;BMP_pressure;BME280_temperature;BME280_humidity;BME280_pressure;Samples;Min_cycle;Max_cycle;Signal;HPM_P1;HPM_P2
2023/12/28 00:00:25;;;;;;;2.20;2.20;;;17.30;68.50;;;;;;5091494;28;43602;-70
2023/12/28 00:02:53;;;;;;;2.40;2.40;;;17.20;68.50;;;;;;5087861;28;43384;-70
2023/12/28 00:05:22;;;;;;;2.60;2.60;;;17.20;68.70;;;;;;5083339;28;43324;-70
2023/12/28 00:07:56;;;;;;;2.47;2.47;;;17.20;68.60;;;;;;5080060;28;43448;-70
2023/12/28 00:10:26;;;;;;;2.50;2.40;;;17.20;68.60;;;;;;5076965;28;43939;-70
2023/12/28 00:12:55;;;;;;;2.47;2.37;;;17.30;68.40;;;;;;5081412;28;43411;-70
2023/12/28 00:15:23;;;;;;;2.60;2.60;;;17.40;68.10;;;;;;5091667;27;43363;-70
2023/12/28 00:17:51;;;;;;;2.50;2.40;;;17.40;67.80;;;;;;5079599;28;44336;-70
2023/12/28 00:20:19;;;;;;;2.40;2.30;;;17.40;67.90;;;;;;5078857;28;43692;-70
2023/12/28 00:22:47;;;;;;;2.70;2.60;;;17.40;68.20;;;;;;5072491;28;43352;-70
2023/12/28 00:25:15;;;;;;;2.90;2.80;;;17.30;68.00;;;;;;5082016;28;43542;-70
2023/12/28 00:27:45;;;;;;;2.03;2.03;;;17.30;68.00;;;;;;5079859;28;43518;-70
2023/12/28 00:30:14;;;;;;;2.43;2.43;;;17.30;68.20;;;;;;5074887;28;45876;-70
2023/12/28 00:32:45;;;;;;;2.40;2.40;;;17.30;68.30;;;;;;5079478;28;43432;-70
2023/12/28 00:35:14;;;;;;;2.30;2.30;;;17.30;68.40;;;;;;5081038;28;43390;-70
2023/12/28 00:37:42;;;;;;;2.43;2.43;;;17.20;68.50;;;;;;5082754;28;43388;-70
2023/12/28 00:40:12;;;;;;;2.47;2.47;;;17.20;69.20;;;;;;5080365;28;45514;-70
2023/12/28 00:42:40;;;;;;;2.40;2.40;;;17.20;68.30;;;;;;5080854;28;44840;-70
2023/12/28 00:45:10;;;;;;;2.40;2.40;;;17.20;68.50;;;;;;5083828;28;43419;-70
2023/12/28 00:47:38;;;;;;;2.40;2.40;;;17.20;68.60;;;;;;5082112;28;43579;-70
2023/12/28 00:50:07;;;;;;;2.30;2.30;;;17.20;68.70;;;;;;5083475;28;43866;-70
2023/12/28 00:52:35;;;;;;;2.40;2.30;;;17.20;68.70;;;;;;5079811;28;44733;-70
2023/12/28 00:55:04;;;;;;;2.63;2.53;;;17.20;68.70;;;;;;5081116;28;43419;-70
2023/12/28 00:57:32;;;;;;;2.40;2.30;;;17.20;68.60;;;;;;5073743;28;43550;-70
2023/12/28 01:00:01;;;;;;;2.47;2.47;;;17.30;68.30;;;;;;5078024;28;43695;-70
2023/12/28 01:02:33;;;;;;;2.63;2.63;;;17.30;67.90;;;;;;5077818;28;44385;-70
2023/12/28 01:05:03;;;;;;;2.20;2.20;;;17.30;68.00;;;;;;5071791;28;43445;-72
2023/12/28 01:07:32;;;;;;;2.50;2.40;;;17.40;68.20;;;;;;5052748;28;43551;-72
2023/12/28 01:10:00;;;;;;;2.53;2.43;;;17.30;68.30;;;;;;5065792;28;44077;-72
2023/12/28 01:12:28;;;;;;;2.80;2.70;;;17.30;68.20;;;;;;5054108;28;45363;-72
2023/12/28 01:14:56;;;;;;;2.50;2.50;;;17.20;68.00;;;;;;5062140;28;43515;-71
2023/12/28 01:17:24;;;;;;;2.37;2.37;;;17.30;68.30;;;;;;5055685;28;43526;-72
2023/12/28 01:19:53;;;;;;;2.20;2.20;;;17.20;68.40;;;;;;5061713;28;45044;-72
2023/12/28 01:22:21;;;;;;;2.30;2.20;;;17.20;68.50;;;;;;5056516;28;44774;-72
2023/12/28 01:24:49;;;;;;;2.20;2.10;;;17.20;68.60;;;;;;5051034;28;44829;-72
2023/12/28 01:27:19;;;;;;;3.43;2.50;;;17.20;68.40;;;;;;5050943;28;43414;-72
2023/12/28 01:29:47;;;;;;;2.30;2.30;;;17.20;68.30;;;;;;5054165;28;45764;-72
2023/12/28 01:32:15;;;;;;;2.60;2.60;;;17.30;68.10;;;;;;5054315;28;44702;-72
2023/12/28 01:34:43;;;;;;;2.50;2.50;;;17.30;68.00;;;;;;5059857;28;43534;-72
2023/12/28 01:37:13;;;;;;;2.40;2.33;;;17.30;68.20;;;;;;5058779;28;43515;-72
2023/12/28 01:39:41;;;;;;;2.60;2.50;;;17.30;68.30;;;;;;5052781;28;44947;-72
2023/12/28 01:42:10;;;;;;;2.50;2.50;;;17.20;68.20;;;;;;5053997;28;44740;-72
2023/12/28 01:44:38;;;;;;;2.70;2.57;;;17.20;68.80;;;;;;5059130;28;43935;-72
2023/12/28 01:47:07;;;;;;;2.63;2.53;;;17.20;68.20;;;;;;5061919;28;44169;-71
2023/12/28 01:49:35;;;;;;;2.10;2.10;;;17.20;68.40;;;;;;5054736;28;43748;-72
2023/12/28 01:52:04;;;;;;;2.07;2.07;;;17.20;68.50;;;;;;5053873;28;43614;-71
2023/12/28 01:54:34;;;;;;;2.57;2.47;;;17.20;68.60;;;;;;5058259;28;43435;-72
2023/12/28 01:57:02;;;;;;;2.40;2.40;;;17.20;68.70;;;;;;5054010;28;43502;-72
2023/12/28 01:59:30;;;;;;;2.27;2.27;;;17.20;68.50;;;;;;5055611;28;44693;-72
2023/12/28 02:01:58;;;;;;;2.30;2.30;;;17.20;68.40;;;;;;5062141;28;44897;-72
2023/12/28 02:04:28;;;;;;;2.40;2.33;;;17.20;68.60;;;;;;5054289;28;43437;-72
2023/12/28 02:06:57;;;;;;;2.40;2.40;;;17.20;68.70;;;;;;5063638;28;43544;-72
2023/12/28 02:09:26;;;;;;;2.20;2.20;;;17.20;68.80;;;;;;5059415;28;45356;-72
2023/12/28 02:11:55;;;;;;;2.40;2.30;;;17.10;68.70;;;;;;5054172;28;43470;-72
2023/12/28 02:14:24;;;;;;;2.70;2.60;;;17.20;68.70;;;;;;5057717;28;43446;-71
2023/12/28 02:16:55;;;;;;;2.20;2.10;;;17.20;68.50;;;;;;5078243;28;43626;-70
2023/12/28 02:19:27;;;;;;;2.30;2.30;;;17.30;68.30;;;;;;5085056;28;45005;-70
2023/12/28 02:21:55;;;;;;;2.27;2.17;;;17.40;67.90;;;;;;5083883;28;44683;-70
2023/12/28 02:24:23;;;;;;;2.40;2.30;;;17.40;67.60;;;;;;5081623;28;43411;-70
2023/12/28 02:26:52;;;;;;;2.53;2.50;;;17.40;67.90;;;;;;5079840;28;43414;-70
2023/12/28 02:29:20;;;;;;;2.37;2.37;;;17.30;67.90;;;;;;5080867;28;45664;-70
2023/12/28 02:31:53;;;;;;;2.20;2.20;;;17.40;68.00;;;;;;5083713;28;45020;-70
2023/12/28 02:34:26;;;;;;;2.37;2.27;;;17.30;67.90;;;;;;5081286;28;43419;-70
2023/12/28 02:36:54;;;;;;;2.40;2.40;;;17.30;68.10;;;;;;5078271;28;43486;-70
2023/12/28 02:39:23;;;;;;;2.13;2.13;;;17.30;68.30;;;;;;5087922;28;45758;-70
2023/12/28 02:41:52;;;;;;;2.23;2.23;;;17.20;68.30;;;;;;5079570;28;45129;-70
2023/12/28 02:44:20;;;;;;;2.53;2.53;;;17.20;68.40;;;;;;5074642;28;43458;-70
2023/12/28 02:46:48;;;;;;;2.13;2.13;;;17.20;68.30;;;;;;5084923;28;43462;-70
2023/12/28 02:49:16;;;;;;;2.00;2.00;;;17.20;68.40;;;;;;5099165;28;46076;-70
2023/12/28 02:51:44;;;;;;;1.90;1.90;;;17.20;68.60;;;;;;5078030;28;45022;-69
2023/12/28 02:54:13;;;;;;;2.37;2.27;;;17.20;68.60;;;;;;5079586;28;43470;-70
2023/12/28 02:56:41;;;;;;;2.00;2.00;;;17.20;68.70;;;;;;5083948;28;44491;-69
2023/12/28 02:59:12;;;;;;;2.30;2.30;;;17.20;68.70;;;;;;5081935;28;45689;-69
2023/12/28 03:01:40;;;;;;;2.30;2.30;;;17.10;68.60;;;;;;5077224;28;45195;-69
2023/12/28 03:04:09;;;;;;;2.23;2.10;;;17.10;68.50;;;;;;5078030;28;43460;-69
2023/12/28 03:06:38;;;;;;;2.30;2.30;;;17.10;68.60;;;;;;5086040;28;43876;-70
2023/12/28 03:09:06;;;;;;;2.00;2.00;;;17.10;69.40;;;;;;5087230;28;46015;-70
2023/12/28 03:11:34;;;;;;;2.17;2.17;;;17.10;68.70;;;;;;5081121;28;43431;-70
2023/12/28 03:14:02;;;;;;;2.00;2.00;;;17.10;68.80;;;;;;5086821;28;43426;-70
2023/12/28 03:16:33;;;;;;;2.17;2.17;;;17.10;68.70;;;;;;5084789;28;43379;-70
2023/12/28 03:19:02;;;;;;;2.00;2.00;;;17.20;68.70;;;;;;5082643;28;43575;-69
2023/12/28 03:21:30;;;;;;;2.60;2.50;;;17.20;68.30;;;;;;5076318;28;43753;-69
2023/12/28 03:23:58;;;;;;;2.13;2.13;;;17.40;68.20;;;;;;5080455;28;43367;-71
2023/12/28 03:26:27;;;;;;;2.40;2.30;;;17.40;67.70;;;;;;5082184;28;43457;-70
2023/12/28 03:28:56;;;;;;;2.10;2.10;;;17.40;67.80;;;;;;5081213;28;43740;-70
2023/12/28 03:31:24;;;;;;;2.10;2.10;;;17.30;67.90;;;;;;5077534;28;43446;-70
2023/12/28 03:33:54;;;;;;;2.10;2.10;;;17.30;68.00;;;;;;5082919;28;43399;-70
2023/12/28 03:36:23;;;;;;;2.20;2.20;;;17.30;67.80;;;;;;5085504;28;43580;-70
2023/12/28 03:38:53;;;;;;;2.00;2.00;;;17.30;68.80;;;;;;5074783;28;44163;-69
2023/12/28 03:41:21;;;;;;;2.00;2.00;;;17.30;68.20;;;;;;5083901;28;45245;-69
2023/12/28 03:43:50;;;;;;;2.13;2.13;;;17.20;68.30;;;;;;5083010;28;43517;-70
2023/12/28 03:46:18;;;;;;;2.03;2.03;;;17.20;68.40;;;;;;5081885;28;43561;-70
2023/12/28 03:48:47;;;;;;;2.13;2.13;;;17.20;68.50;;;;;;5084078;28;43602;-70
2023/12/28 03:51:16;;;;;;;1.93;1.93;;;17.20;68.40;;;;;;5080437;28;43803;-70
2023/12/28 03:53:45;;;;;;;1.90;1.90;;;17.20;68.60;;;;;;5079770;28;43408;-69
2023/12/28 03:56:22;;;;;;;2.20;2.10;;;17.20;68.70;;;;;;5078354;28;43512;-69
2023/12/28 03:58:50;;;;;;;1.80;1.80;;;17.10;68.60;;;;;;5074970;28;43898;-69
2023/12/28 04:01:18;;;;;;;1.93;1.93;;;17.10;68.70;;;;;;5074542;28;44700;-69
2023/12/28 04:03:47;;;;;;;2.00;2.00;;;17.10;68.70;;;;;;5081021;28;43320;-69
2023/12/28 04:06:16;;;;;;;2.33;2.30;;;17.10;68.60;;;;;;5077957;28;43570;-70
2023/12/28 04:08:44;;;;;;;1.77;1.77;;;17.20;68.40;;;;;;5078185;28;45734;-69
2023/12/28 04:11:12;;;;;;;2.17;2.17;;;17.30;68.10;;;;;;5074879;28;45247;-70
2023/12/28 04:13:40;;;;;;;2.10;2.00;;;17.30;67.70;;;;;;5077059;28;43442;-69
2023/12/28 04:16:09;;;;;;;1.93;1.93;;;17.30;68.00;;;;;;5074172;28;43649;-70
2023/12/28 04:18:38;;;;;;;2.00;1.90;;;17.30;68.20;;;;;;5081153;28;43909;-69
2023/12/28 04:21:09;;;;;;;1.83;1.83;;;17.30;68.10;;;;;;5075340;28;44830;-70
2023/12/28 04:23:38;;;;;;;1.93;1.93;;;17.30;68.90;;;;;;5077886;28;43479;-69
2023/12/28 04:26:06;;;;;;;1.80;1.80;;;17.30;68.30;;;;;;5077207;28;43731;-69
2023/12/28 04:28:35;;;;;;;1.83;1.83;;;17.20;68.30;;;;;;5080308;28;44064;-69
2023/12/28 04:31:04;;;;;;;1.90;1.90;;;17.20;68.50;;;;;;5077646;28;44986;-69
2023/12/28 04:33:33;;;;;;;1.90;1.90;;;17.20;68.60;;;;;;5075766;28;43445;-69
2023/12/28 04:36:03;;;;;;;2.00;2.00;;;17.20;68.60;;;;;;5064193;28;43973;-71
2023/12/28 04:38:31;;;;;;;1.87;1.87;;;17.20;68.50;;;;;;5055768;28;46187;-71
2023/12/28 04:41:01;;;;;;;1.70;1.70;;;17.20;68.60;;;;;;5054046;28;43625;-71
2023/12/28 04:43:30;;;;;;;1.63;1.63;;;17.20;68.70;;;;;;5056847;28;43387;-71
2023/12/28 04:45:58;;;;;;;1.80;1.80;;;17.20;68.70;;;;;;5051781;28;44257;-71
2023/12/28 04:48:27;;;;;;;2.00;2.00;;;17.20;68.80;;;;;;5058758;28;45783;-72
2023/12/28 04:50:55;;;;;;;1.90;1.90;;;17.20;68.80;;;;;;5073753;28;44721;-71
2023/12/28 04:53:25;;;;;;;2.10;2.00;;;17.20;68.70;;;;;;5057862;28;43472;-71
2023/12/28 04:55:53;;;;;;;1.80;1.80;;;17.20;68.60;;;;;;5051759;28;44036;-70
2023/12/28 04:58:24;;;;;;;2.10;2.00;;;17.20;68.70;;;;;;5054426;28;45792;-70
2023/12/28 05:00:52;;;;;;;1.70;1.70;;;17.20;68.70;;;;;;5048712;28;44884;-71
2023/12/28 05:03:20;;;;;;;2.33;2.13;;;17.20;68.80;;;;;;5047942;28;43436;-70
2023/12/28 05:05:48;;;;;;;2.80;2.70;;;17.20;68.80;;;;;;5053360;28;43344;-70
2023/12/28 05:08:17;;;;;;;4.27;2.90;;;17.20;68.70;;;;;;5055649;28;44079;-71
2023/12/28 05:10:45;;;;;;;3.43;3.13;;;17.20;69.20;;;;;;5057849;28;44064;-70
2023/12/28 05:13:13;;;;;;;3.63;3.30;;;17.30;68.20;;;;;;5056160;28;43445;-70
2023/12/28 05:15:42;;;;;;;4.13;3.13;;;17.40;67.90;;;;;;5055197;28;43462;-75
2023/12/28 05:18:10;;;;;;;4.40;3.10;;;17.40;67.50;;;;;;5056133;28;45933;-71
2023/12/28 05:20:39;;;;;;;5.00;3.40;;;17.40;67.70;;;;;;5059301;28;43534;-72
2023/12/28 05:23:07;;;;;;;4.53;3.67;;;17.40;67.90;;;;;;5054805;28;43894;-71
2023/12/28 05:25:35;;;;;;;5.70;3.90;;;17.40;67.90;;;;;;5052990;28;44056;-72
2023/12/28 05:28:03;;;;;;;3.37;3.07;;;17.30;67.80;;;;;;5054570;28;43962;-72
2023/12/28 05:30:32;;;;;;;3.10;2.90;;;17.30;68.00;;;;;;5061550;28;43406;-72
2023/12/28 05:33:02;;;;;;;4.77;3.80;;;17.30;68.20;;;;;;5058861;28;44724;-71
2023/12/28 05:35:30;;;;;;;4.30;3.90;;;17.20;68.30;;;;;;5060145;28;43497;-71
2023/12/28 05:37:58;;;;;;;6.10;3.50;;;17.20;68.30;;;;;;5057914;28;44022;-71
2023/12/28 05:40:26;;;;;;;5.47;4.10;;;17.20;68.30;;;;;;5056583;28;43504;-71
2023/12/28 05:42:54;;;;;;;3.60;3.30;;;17.20;68.30;;;;;;5057137;28;43468;-71
2023/12/28 05:45:22;;;;;;;4.77;3.50;;;17.20;68.50;;;;;;5060465;28;43804;-71
2023/12/28 05:47:51;;;;;;;3.87;3.53;;;17.20;68.60;;;;;;5059146;28;43929;-71
2023/12/28 05:50:20;;;;;;;4.83;3.67;;;17.20;68.70;;;;;;5051612;28;44080;-71
2023/12/28 05:52:48;;;;;;;3.77;3.43;;;17.10;68.50;;;;;;5058732;28;44002;-71
2023/12/28 05:55:16;;;;;;;4.77;3.73;;;17.10;68.50;;;;;;5058259;28;43435;-72
2023/12/28 05:57:44;;;;;;;3.57;3.27;;;17.20;68.60;;;;;;5058867;28;43864;-71
2023/12/28 06:00:14;;;;;;;4.00;3.57;;;17.20;68.70;;;;;;5059824;28;43478;-71
2023/12/28 06:02:42;;;;;;;3.53;3.30;;;17.20;68.70;;;;;;5053259;28;43491;-71
2023/12/28 06:05:10;;;;;;;4.30;3.90;;;17.20;68.70;;;;;;5056711;28;43404;-71
2023/12/28 06:07:41;;;;;;;4.73;3.73;;;17.10;68.70;;;;;;5055301;28;44078;-71
2023/12/28 06:10:09;;;;;;;4.90;4.10;;;17.10;68.60;;;;;;5062038;28;44048;-71
2023/12/28 06:12:37;;;;;;;5.07;3.77;;;17.20;68.60;;;;;;5054274;28;43394;-71
2023/12/28 06:15:07;;;;;;;6.47;4.00;;;17.20;68.30;;;;;;5070484;28;44033;-77
2023/12/28 06:17:35;;;;;;;4.30;3.60;;;17.30;67.90;;;;;;5054426;28;43913;-71
2023/12/28 06:20:04;;;;;;;4.97;3.90;;;17.40;67.80;;;;;;5053133;28;43957;-71
2023/12/28 06:22:32;;;;;;;3.83;3.43;;;17.40;67.90;;;;;;5053861;28;43371;-72
2023/12/28 06:25:01;;;;;;;4.07;3.77;;;17.40;67.90;;;;;;5056683;28;44083;-71
2023/12/28 06:27:29;;;;;;;4.60;4.10;;;17.40;68.60;;;;;;5057477;28;43683;-71
2023/12/28 06:29:58;;;;;;;4.10;3.67;;;17.30;67.80;;;;;;5060185;28;43459;-71
2023/12/28 06:32:25;;;;;;;3.87;3.57;;;17.30;68.10;;;;;;5054759;28;43443;-71
2023/12/28 06:34:56;;;;;;;3.73;3.43;;;17.30;68.20;;;;;;5054710;28;43760;-71
2023/12/28 06:37:24;;;;;;;3.67;3.37;;;17.30;68.30;;;;;;5053817;28;43836;-71
2023/12/28 06:39:52;;;;;;;5.57;4.17;;;17.20;68.30;;;;;;5059740;28;43340;-71
2023/12/28 06:42:21;;;;;;;4.50;3.67;;;17.20;68.30;;;;;;5052181;28;43430;-71
2023/12/28 06:44:49;;;;;;;3.83;3.50;;;17.20;68.30;;;;;;5059197;28;43368;-71
2023/12/28 06:47:18;;;;;;;4.13;3.70;;;17.20;68.40;;;;;;5058223;28;43614;-71
2023/12/28 06:49:46;;;;;;;5.50;3.67;;;17.20;68.50;;;;;;5051774;28;43383;-71
2023/12/28 06:52:14;;;;;;;3.80;3.30;;;17.20;68.60;;;;;;5052817;28;43440;-71
2023/12/28 06:54:42;;;;;;;4.97;3.93;;;17.20;68.70;;;;;;5054356;28;43631;-72
2023/12/28 06:57:10;;;;;;;4.63;3.90;;;17.10;68.50;;;;;;5054492;28;43603;-73
2023/12/28 06:59:40;;;;;;;4.40;4.00;;;17.20;68.50;;;;;;5054171;28;43470;-72
2023/12/28 07:02:08;;;;;;;4.70;4.00;;;17.30;68.30;;;;;;5060918;28;43384;-72
2023/12/28 07:04:36;;;;;;;5.37;3.83;;;17.30;68.00;;;;;;5058203;28;43472;-72
2023/12/28 07:07:04;;;;;;;3.50;3.20;;;17.30;68.00;;;;;;5058608;28;44005;-72
2023/12/28 07:09:32;;;;;;;4.23;3.83;;;17.30;68.20;;;;;;5057684;28;44643;-72
2023/12/28 07:12:00;;;;;;;4.23;3.83;;;17.30;68.30;;;;;;5059920;28;43415;-72
2023/12/28 07:14:28;;;;;;;4.40;3.33;;;17.20;68.20;;;;;;5060928;28;43447;-72
2023/12/28 07:16:57;;;;;;;3.90;3.60;;;17.20;68.90;;;;;;5052609;28;43629;-72
2023/12/28 07:19:25;;;;;;;3.30;3.10;;;17.30;68.40;;;;;;5052447;28;43730;-72
2023/12/28 07:21:54;;;;;;;3.67;3.37;;;17.20;68.40;;;;;;5055698;28;43509;-72
2023/12/28 07:24:22;;;;;;;4.80;3.77;;;17.20;68.50;;;;;;5056044;28;43502;-72
2023/12/28 07:26:51;;;;;;;4.30;3.60;;;17.20;68.60;;;;;;5052260;28;43661;-72
2023/12/28 07:29:19;;;;;;;3.87;3.47;;;17.20;69.30;;;;;;5052597;28;43452;-72
2023/12/28 07:31:47;;;;;;;3.70;3.40;;;17.20;68.50;;;;;;5054406;28;43409;-72
2023/12/28 07:34:17;;;;;;;4.00;3.60;;;17.20;68.30;;;;;;5055029;28;43375;-72
2023/12/28 07:36:45;;;;;;;4.07;3.50;;;17.30;68.20;;;;;;5057260;28;43851;-72
2023/12/28 07:39:14;;;;;;;3.63;3.33;;;17.20;69.00;;;;;;5055620;28;44045;-72
2023/12/28 07:41:43;;;;;;;4.03;3.60;;;17.20;68.30;;;;;;5054739;28;43437;-72
2023/12/28 07:44:10;;;;;;;3.70;3.40;;;17.20;68.40;;;;;;5052911;28;43387;-72
2023/12/28 07:46:38;;;;;;;3.90;3.60;;;17.20;68.30;;;;;;5051815;28;43610;-72
2023/12/28 07:49:07;;;;;;;4.10;3.80;;;17.20;68.30;;;;;;5056611;28;43437;-72
2023/12/28 07:51:36;;;;;;;3.67;3.47;;;17.20;68.40;;;;;;5061118;28;43506;-72
2023/12/28 07:54:04;;;;;;;3.50;3.20;;;17.20;68.50;;;;;;5056609;28;43478;-72
2023/12/28 07:56:32;;;;;;;4.00;3.60;;;17.20;68.70;;;;;;5050926;28;43965;-72
2023/12/28 07:59:00;;;;;;;3.70;3.40;;;17.20;68.70;;;;;;5055008;28;43433;-72
2023/12/28 08:01:28;;;;;;;4.33;3.90;;;17.20;68.70;;;;;;5050532;28;43427;-72
2023/12/28 08:03:56;;;;;;;3.57;3.27;;;17.20;68.50;;;;;;5055753;28;43610;-72
2023/12/28 08:06:25;;;;;;;4.37;3.50;;;17.20;68.20;;;;;;5057339;28;44004;-71
2023/12/28 08:08:54;;;;;;;3.60;3.30;;;17.30;68.00;;;;;;5056826;28;43649;-71
2023/12/28 08:11:22;;;;;;;3.40;3.10;;;17.30;68.00;;;;;;5058726;28;43462;-72
2023/12/28 08:13:50;;;;;;;3.67;3.37;;;17.30;68.20;;;;;;5057271;28;43918;-71
2023/12/28 08:16:18;;;;;;;3.60;3.30;;;17.30;68.20;;;;;;5056875;28;45670;-73
2023/12/28 08:18:46;;;;;;;3.30;3.10;;;17.20;68.10;;;;;;5054092;28;43351;-71
2023/12/28 08:21:14;;;;;;;3.63;3.33;;;17.30;68.30;;;;;;5054895;28;44079;-71
2023/12/28 08:23:42;;;;;;;3.30;3.10;;;17.20;68.30;;;;;;5048519;28;43459;-71
2023/12/28 08:26:12;;;;;;;3.10;2.90;;;17.20;68.40;;;;;;5054267;28;43779;-71
2023/12/28 08:28:40;;;;;;;3.53;3.23;;;17.20;68.60;;;;;;5054126;28;46055;-71
2023/12/28 08:31:09;;;;;;;3.97;3.63;;;17.20;68.70;;;;;;5054937;28;43531;-71
2023/12/28 08:33:38;;;;;;;3.70;3.30;;;17.20;68.60;;;;;;5055798;28;43459;-71
2023/12/28 08:36:08;;;;;;;3.47;3.27;;;17.10;68.50;;;;;;5054084;28;43704;-71
2023/12/28 08:38:36;;;;;;;3.83;3.60;;;17.10;68.60;;;;;;5060679;28;43428;-72
2023/12/28 08:41:08;;;;;;;3.17;2.87;;;17.10;68.60;;;;;;5054175;28;43958;-71
2023/12/28 08:43:38;;;;;;;2.93;2.73;;;17.10;68.70;;;;;;5058919;28;43383;-71
2023/12/28 08:46:09;;;;;;;3.43;3.23;;;17.10;68.70;;;;;;5058763;28;43902;-71
2023/12/28 08:48:37;;;;;;;3.67;3.33;;;17.10;68.70;;;;;;5055124;28;43384;-71
2023/12/28 08:51:05;;;;;;;3.50;3.23;;;17.20;68.70;;;;;;5055980;28;44102;-71
2023/12/28 08:53:33;;;;;;;3.73;3.43;;;17.20;68.30;;;;;;5054178;28;43458;-71
2023/12/28 08:56:01;;;;;;;3.50;3.30;;;17.30;68.00;;;;;;5066778;28;43603;-71
2023/12/28 08:58:29;;;;;;;3.33;3.10;;;17.30;68.00;;;;;;5058400;28;44108;-71
2023/12/28 09:00:59;;;;;;;3.00;2.73;;;17.30;68.10;;;;;;5054253;28;43513;-71
2023/12/28 09:03:27;;;;;;;3.47;3.27;;;17.20;68.20;;;;;;5058695;28;43515;-72
2023/12/28 09:05:56;;;;;;;3.57;3.37;;;17.20;68.10;;;;;;5058214;28;43701;-71
2023/12/28 09:08:24;;;;;;;3.13;2.93;;;17.20;68.20;;;;;;5059532;28;44772;-71
2023/12/28 09:10:52;;;;;;;3.13;2.90;;;17.20;68.30;;;;;;5055996;28;44037;-71
2023/12/28 09:13:20;;;;;;;3.20;3.00;;;17.20;68.50;;;;;;5055666;28;43439;-71
2023/12/28 09:15:48;;;;;;;3.67;3.37;;;17.20;68.60;;;;;;5067060;28;45656;-69
2023/12/28 09:18:17;;;;;;;2.93;2.60;;;17.20;68.70;;;;;;5081115;28;44011;-69
2023/12/28 09:20:45;;;;;;;3.20;3.07;;;17.20;68.60;;;;;;5085236;28;43477;-69
2023/12/28 09:23:13;;;;;;;3.43;3.13;;;17.10;68.50;;;;;;5080518;28;43719;-70
2023/12/28 09:25:42;;;;;;;3.10;3.00;;;17.10;68.60;;;;;;5084301;28;43926;-68
2023/12/28 09:28:10;;;;;;;2.70;2.60;;;17.20;68.80;;;;;;5076075;28;43391;-69
2023/12/28 09:30:38;;;;;;;3.20;3.00;;;17.10;68.70;;;;;;5083901;28;43454;-69
2023/12/28 09:33:06;;;;;;;3.30;3.03;;;17.10;68.80;;;;;;5083188;28;43390;-69
2023/12/28 09:35:35;;;;;;;3.20;3.00;;;17.10;68.70;;;;;;5084238;28;43791;-69
2023/12/28 09:38:04;;;;;;;3.20;3.03;;;17.10;68.50;;;;;;5081913;28;43447;-70
2023/12/28 09:40:32;;;;;;;2.90;2.80;;;17.20;68.30;;;;;;5088218;27;43440;-69
2023/12/28 09:43:05;;;;;;;3.10;2.90;;;17.30;67.90;;;;;;5083059;28;43393;-69
2023/12/28 09:45:33;;;;;;;2.70;2.60;;;17.30;67.80;;;;;;5082338;28;43669;-69
2023/12/28 09:48:02;;;;;;;2.90;2.70;;;17.30;68.00;;;;;;5080656;28;43440;-70
2023/12/28 09:50:31;;;;;;;2.93;2.83;;;17.30;68.00;;;;;;5087975;28;43434;-68
2023/12/28 09:53:00;;;;;;;3.10;3.00;;;17.30;68.00;;;;;;5077226;28;43462;-69
2023/12/28 09:55:28;;;;;;;3.50;3.20;;;17.30;68.10;;;;;;5079985;28;43612;-69
2023/12/28 09:57:56;;;;;;;2.57;2.47;;;17.30;68.30;;;;;;5086033;28;43390;-68
2023/12/28 10:00:24;;;;;;;3.07;2.80;;;17.20;68.30;;;;;;5086238;28;43435;-69
2023/12/28 10:02:52;;;;;;;2.83;2.63;;;17.20;68.50;;;;;;5085208;28;43407;-68
2023/12/28 10:05:20;;;;;;;3.07;2.97;;;17.20;68.60;;;;;;5085825;28;43781;-68
2023/12/28 10:07:48;;;;;;;3.50;3.30;;;17.20;68.50;;;;;;5081911;28;43406;-68
2023/12/28 10:10:22;;;;;;;2.93;2.83;;;17.20;68.60;;;;;;5084042;28;43757;-68
2023/12/28 10:12:50;;;;;;;2.93;2.73;;;17.20;68.70;;;;;;5080067;28;43328;-68
2023/12/28 10:15:18;;;;;;;2.73;2.63;;;17.20;68.80;;;;;;5083901;28;43615;-68
2023/12/28 10:17:47;;;;;;;2.63;2.53;;;17.10;68.70;;;;;;5082223;28;43390;-69
2023/12/28 10:20:16;;;;;;;3.37;3.17;;;17.10;68.80;;;;;;5080697;28;43394;-69
2023/12/28 10:22:44;;;;;;;2.90;2.70;;;17.10;68.80;;;;;;5083996;28;43427;-70
2023/12/28 10:25:12;;;;;;;2.83;2.73;;;17.10;68.70;;;;;;5078371;28;43552;-69
2023/12/28 10:27:42;;;;;;;4.37;2.93;;;17.20;68.60;;;;;;5079732;28;43342;-69
2023/12/28 10:30:11;;;;;;;3.00;2.80;;;17.30;68.20;;;;;;5078533;28;43403;-70
2023/12/28 10:32:41;;;;;;;2.83;2.73;;;17.30;68.10;;;;;;5079325;28;43339;-69
2023/12/28 10:35:09;;;;;;;2.77;2.63;;;17.30;68.90;;;;;;5077675;28;46354;-69
2023/12/28 10:37:39;;;;;;;2.80;2.70;;;17.30;68.30;;;;;;5076538;28;43345;-70
2023/12/28 10:40:13;;;;;;;2.90;2.67;;;17.20;68.30;;;;;;5078590;28;43367;-69
2023/12/28 10:42:51;;;;;;;2.60;2.50;;;17.20;68.30;;;;;;5081049;27;43594;-70
2023/12/28 10:45:20;;;;;;;2.77;2.67;;;17.20;68.30;;;;;;5082154;28;46038;-68
2023/12/28 10:47:56;;;;;;;2.80;2.60;;;17.20;68.50;;;;;;5080472;28;43659;-68
2023/12/28 10:50:24;;;;;;;2.70;2.60;;;17.20;68.60;;;;;;5078795;28;43885;-69
2023/12/28 10:52:54;;;;;;;2.87;2.67;;;17.20;68.70;;;;;;5085362;28;43436;-68
2023/12/28 10:55:33;;;;;;;3.00;2.90;;;17.10;68.50;;;;;;5079615;28;43759;-70
2023/12/28 10:58:07;;;;;;;2.60;2.50;;;17.10;68.50;;;;;;5079651;28;43438;-69
2023/12/28 11:00:37;;;;;;;2.53;2.40;;;17.20;68.70;;;;;;5085578;28;43369;-70
2023/12/28 11:03:06;;;;;;;2.77;2.57;;;17.20;68.80;;;;;;5076589;28;43528;-69
2023/12/28 11:05:34;;;;;;;2.50;2.40;;;17.20;68.90;;;;;;5083139;28;43812;-69
2023/12/28 11:08:03;;;;;;;3.33;2.57;;;17.10;68.80;;;;;;5084605;28;43834;-70
2023/12/28 11:10:31;;;;;;;2.50;2.40;;;17.10;68.80;;;;;;5084022;28;43404;-69
2023/12/28 11:12:59;;;;;;;2.43;2.33;;;17.10;68.70;;;;;;5079925;28;43459;-70
2023/12/28 11:15:28;;;;;;;2.90;2.80;;;17.20;68.50;;;;;;5082174;28;43607;-69
2023/12/28 11:17:56;;;;;;;2.73;2.57;;;17.30;68.20;;;;;;5079444;28;45201;-70
2023/12/28 11:20:25;;;;;;;2.50;2.40;;;17.30;68.30;;;;;;5079562;28;43408;-69
2023/12/28 11:22:53;;;;;;;2.80;2.70;;;17.30;68.40;;;;;;5081365;28;43415;-68
2023/12/28 11:25:21;;;;;;;2.77;2.67;;;17.30;68.50;;;;;;5082595;28;45368;-69
2023/12/28 11:27:49;;;;;;;2.67;2.57;;;17.20;68.40;;;;;;5077044;28;43411;-69
2023/12/28 11:30:17;;;;;;;2.40;2.30;;;17.20;68.40;;;;;;5083493;28;43414;-69
2023/12/28 11:32:47;;;;;;;2.50;2.40;;;17.20;68.50;;;;;;5086886;28;43951;-69
2023/12/28 11:35:15;;;;;;;2.50;2.40;;;17.20;68.60;;;;;;5071643;28;43809;-72
2023/12/28 11:37:47;;;;;;;3.03;2.10;;;17.20;68.70;;;;;;5058311;28;44947;-72
2023/12/28 11:40:18;;;;;;;2.40;2.30;;;17.20;69.50;;;;;;5057073;28;43456;-72
2023/12/28 11:42:51;;;;;;;2.23;2.20;;;17.10;68.70;;;;;;5054720;28;43379;-72
2023/12/28 11:45:18;;;;;;;2.87;2.67;;;17.20;68.70;;;;;;5061293;28;43968;-72
2023/12/28 11:47:48;;;;;;;2.57;2.47;;;17.20;68.40;;;;;;5052766;28;43468;-72
2023/12/28 11:50:16;;;;;;;2.27;2.17;;;17.30;68.30;;;;;;5054466;28;43719;-72
2023/12/28 11:52:44;;;;;;;2.30;2.20;;;17.30;68.40;;;;;;5054356;28;43410;-72
2023/12/28 11:55:12;;;;;;;2.23;2.13;;;17.30;68.50;;;;;;5053589;28;43628;-72
2023/12/28 11:57:41;;;;;;;2.43;2.33;;;17.20;68.50;;;;;;5058554;28;43815;-72
2023/12/28 12:00:10;;;;;;;1.90;1.90;;;17.20;68.40;;;;;;5057513;28;43416;-71
2023/12/28 12:02:38;;;;;;;2.10;2.10;;;17.20;69.20;;;;;;5060234;28;43499;-72
2023/12/28 12:05:10;;;;;;;2.00;2.00;;;17.20;68.60;;;;;;5050714;28;44065;-71
2023/12/28 12:07:38;;;;;;;2.53;2.43;;;17.20;68.70;;;;;;5060827;28;43354;-72
2023/12/28 12:10:06;;;;;;;2.17;2.07;;;17.20;68.70;;;;;;5056685;28;43418;-72
2023/12/28 12:12:35;;;;;;;2.40;2.30;;;17.20;68.80;;;;;;5055034;28;43395;-72
2023/12/28 12:15:03;;;;;;;2.67;2.57;;;17.20;68.80;;;;;;5052132;28;43973;-73
2023/12/28 12:17:31;;;;;;;2.20;2.10;;;17.20;68.70;;;;;;5053627;28;44035;-72
2023/12/28 12:20:02;;;;;;;2.40;2.30;;;17.20;68.30;;;;;;5062816;28;43462;-72
2023/12/28 12:22:32;;;;;;;2.00;2.00;;;17.30;68.40;;;;;;5051310;28;44199;-71
2023/12/28 12:25:03;;;;;;;2.10;2.10;;;17.30;68.50;;;;;;5054928;28;45858;-72
2023/12/28 12:27:32;;;;;;;2.30;2.20;;;17.20;69.20;;;;;;5055057;28;43896;-72
2023/12/28 12:30:01;;;;;;;2.20;2.10;;;17.20;68.50;;;;;;5068233;28;43435;-72
2023/12/28 12:32:29;;;;;;;2.07;1.97;;;17.20;68.50;;;;;;5070094;28;43438;-72
2023/12/28 12:34:57;;;;;;;2.20;2.10;;;17.20;68.60;;;;;;5068397;27;43699;-72
2023/12/28 12:37:26;;;;;;;2.47;2.37;;;17.20;68.70;;;;;;5066903;28;43511;-72
2023/12/28 12:39:56;;;;;;;2.23;2.20;;;17.20;68.70;;;;;;5072060;28;43937;-72
2023/12/28 12:42:52;;;;;;;2.33;2.23;;;17.20;68.80;;;;;;5070844;28;44002;-72
2023/12/28 12:45:21;;;;;;;2.50;2.40;;;17.20;68.90;;;;;;5057480;28;43669;-70
2023/12/28 12:47:50;;;;;;;2.43;2.33;;;17.20;69.60;;;;;;5077992;28;43354;-70
2023/12/28 12:50:18;;;;;;;2.13;2.03;;;17.20;68.60;;;;;;5076505;28;43802;-70
2023/12/28 12:52:46;;;;;;;2.50;2.40;;;17.30;68.30;;;;;;5074789;28;43422;-70
2023/12/28 12:55:16;;;;;;;1.90;1.90;;;17.30;68.20;;;;;;5073899;28;43898;-70